Time;durP1;ratioP1;P1;durP2;ratioP2;P2;SDS_P1;SDS_P2;PMS_P1;PMS_P2;Temp;Humidity;BMP_temperature;BMP_pressure;BME280_temperature;BME280_humidity;BME280_pressure;Samples;Min_cycle;Max_cycle;Signal;HPM_P1;HPM_P2
2022/09/05 00:01:32;;;;;;;4.37;4.00;;;;;;;;;;5052880;28;20439;-74
2022/09/05 00:04:04;;;;;;;4.00;3.70;;;;;;;;;;5073175;28;20526;-74
2022/09/05 00:06:34;;;;;;;6.23;3.83;;;;;;;;;;5072778;28;20423;-74
2022/09/05 00:09:02;;;;;;;3.90;3.60;;;;;;;;;;5065211;28;20972;-74
2022/09/05 00:11:36;;;;;;;4.60;4.20;;;;;;;;;;5052573;28;20908;-76
2022/09/05 00:14:09;;;;;;;4.43;4.03;;;;;;;;;;5052464;28;21006;-75
2022/09/05 00:16:50;;;;;;;4.60;4.17;;;;;;;;;;5052723;28;20570;-75
2022/09/05 00:19:22;;;;;;;4.70;4.30;;;;;;;;;;5052369;28;20494;-75
2022/09/05 00:22:03;;;;;;;4.13;3.83;;;;;;;;;;5051810;28;20440;-74
2022/09/05 00:24:35;;;;;;;4.87;4.47;;;;;;;;;;5054771;28;20419;-75
2022/09/05 00:27:06;;;;;;;4.13;3.47;;;;;;;;;;5055724;28;20858;-74
2022/09/05 00:29:41;;;;;;;4.30;3.90;;;;;;;;;;5055353;28;20475;-74
2022/09/05 00:32:13;;;;;;;4.20;3.60;;;;;;;;;;5055248;28;20483;-74
2022/09/05 00:34:50;;;;;;;3.97;3.67;;;;;;;;;;5055118;28;20459;-75
2022/09/05 00:37:26;;;;;;;6.73;3.90;;;;;;;;;;5055528;28;20440;-73
2022/09/05 00:39:56;;;;;;;4.30;3.90;;;;;;;;;;5055568;28;20570;-73
2022/09/05 00:42:25;;;;;;;4.43;4.03;;;;;;;;;;5056119;28;20533;-73
2022/09/05 00:44:55;;;;;;;4.50;4.10;;;;;;;;;;5056059;28;20442;-73
2022/09/05 00:47:28;;;;;;;5.17;4.30;;;;;;;;;;5055772;28;20428;-73
2022/09/05 00:49:58;;;;;;;4.80;4.50;;;;;;;;;;5055795;28;20438;-75
2022/09/05 00:52:30;;;;;;;4.50;4.10;;;;;;;;;;5056517;28;20523;-75
2022/09/05 00:55:02;;;;;;;5.30;3.87;;;;;;;;;;5055939;28;20515;-74
2022/09/05 00:57:43;;;;;;;3.97;3.60;;;;;;;;;;5055622;28;20909;-74
2022/09/05 01:00:15;;;;;;;4.30;3.90;;;;;;;;;;5055773;28;20569;-74
2022/09/05 01:02:51;;;;;;;4.60;4.20;;;;;;;;;;5058637;28;20457;-74
2022/09/05 01:05:24;;;;;;;4.17;3.73;;;;;;;;;;5055371;28;20427;-74
2022/09/05 01:07:56;;;;;;;4.20;3.90;;;;;;;;;;5056706;28;20437;-72
2022/09/05 01:10:25;;;;;;;4.73;4.00;;;;;;;;;;5057269;28;20444;-77
2022/09/05 01:13:09;;;;;;;4.73;4.33;;;;;;;;;;5055430;28;20501;-75
2022/09/05 01:15:41;;;;;;;11.27;3.97;;;;;;;;;;5055032;28;21003;-75
2022/09/05 01:18:24;;;;;;;4.80;4.40;;;;;;;;;;5055256;28;20923;-73
2022/09/05 01:21:02;;;;;;;8.50;4.43;;;;;;;;;;5053098;28;20487;-74
2022/09/05 01:23:47;;;;;;;5.40;5.00;;;;;;;;;;5055284;28;20849;-73
2022/09/05 01:26:31;;;;;;;4.97;4.57;;;;;;;;;;5055974;28;20434;-73
2022/09/05 01:29:02;;;;;;;5.00;4.70;;;;;;;;;;5054962;28;20513;-73
2022/09/05 01:31:36;;;;;;;4.53;4.13;;;;;;;;;;5055199;28;20436;-74
2022/09/05 01:34:07;;;;;;;4.80;3.93;;;;;;;;;;5055636;28;20845;-74
2022/09/05 01:36:43;;;;;;;4.83;4.50;;;;;;;;;;5055455;28;20852;-74
2022/09/05 01:39:16;;;;;;;5.33;4.83;;;;;;;;;;5055007;28;20432;-74
2022/09/05 01:41:45;;;;;;;5.23;4.83;;;;;;;;;;5055363;28;20430;-74
2022/09/05 01:44:30;;;;;;;5.10;4.70;;;;;;;;;;5054571;28;20443;-74
2022/09/05 01:47:07;;;;;;;6.50;4.77;;;;;;;;;;5054849;28;20537;-74
2022/09/05 01:49:38;;;;;;;5.33;4.90;;;;;;;;;;5054533;28;20514;-74
2022/09/05 01:52:19;;;;;;;4.87;4.47;;;;;;;;;;5054837;28;20434;-74
2022/09/05 01:54:53;;;;;;;5.33;4.83;;;;;;;;;;5054863;28;20947;-74
2022/09/05 01:57:25;;;;;;;5.53;5.03;;;;;;;;;;5055245;28;20490;-74
2022/09/05 01:59:56;;;;;;;5.00;4.60;;;;;;;;;;5054248;28;20564;-74
2022/09/05 02:02:33;;;;;;;5.60;5.10;;;;;;;;;;5057636;28;20543;-74
2022/09/05 02:05:06;;;;;;;5.77;5.37;;;;;;;;;;5054526;28;20530;-74
2022/09/05 02:07:38;;;;;;;5.57;5.03;;;;;;;;;;5054857;28;20536;-74
2022/09/05 02:10:23;;;;;;;5.00;4.60;;;;;;;;;;5057656;28;20548;-74
2022/09/05 02:12:55;;;;;;;5.63;5.10;;;;;;;;;;5055204;28;20500;-74
2022/09/05 02:15:24;;;;;;;5.70;5.07;;;;;;;;;;5054273;28;20489;-74
2022/09/05 02:17:54;;;;;;;5.63;5.13;;;;;;;;;;5054293;28;20465;-74
2022/09/05 02:20:23;;;;;;;6.03;5.60;;;;;;;;;;5054394;28;20562;-74
2022/09/05 02:22:52;;;;;;;10.13;5.17;;;;;;;;;;5053946;28;20539;-75
2022/09/05 02:25:21;;;;;;;5.97;5.50;;;;;;;;;;5054221;28;20625;-74
2022/09/05 02:27:50;;;;;;;7.83;7.03;;;;;;;;;;5054110;28;20527;-74
2022/09/05 02:30:19;;;;;;;6.50;5.97;;;;;;;;;;5053727;28;20446;-74
2022/09/05 02:32:55;;;;;;;5.60;5.20;;;;;;;;;;5054089;28;20915;-74
2022/09/05 02:35:25;;;;;;;6.03;5.60;;;;;;;;;;5054163;28;20431;-74
2022/09/05 02:37:55;;;;;;;6.47;5.53;;;;;;;;;;5053986;28;20523;-74
2022/09/05 02:40:25;;;;;;;6.43;5.67;;;;;;;;;;5053878;28;20486;-73
2022/09/05 02:42:56;;;;;;;6.00;5.60;;;;;;;;;;5054017;28;20513;-73
2022/09/05 02:45:29;;;;;;;6.27;5.77;;;;;;;;;;5053069;28;20536;-73
2022/09/05 02:48:07;;;;;;;6.07;5.47;;;;;;;;;;5053903;28;20445;-73
2022/09/05 02:50:38;;;;;;;6.70;6.00;;;;;;;;;;5053754;28;20427;-73
2022/09/05 02:53:05;;;;;;;6.67;6.10;;;;;;;;;;5054497;28;20750;-73
2022/09/05 02:55:38;;;;;;;6.07;5.67;;;;;;;;;;5053566;28;20521;-73
2022/09/05 02:58:17;;;;;;;6.53;5.93;;;;;;;;;;5054076;28;20509;-73
2022/09/05 03:00:47;;;;;;;6.90;6.07;;;;;;;;;;5053406;28;20563;-72
2022/09/05 03:03:25;;;;;;;9.33;6.23;;;;;;;;;;5056011;28;20520;-73
2022/09/05 03:05:57;;;;;;;7.07;6.33;;;;;;;;;;5053721;28;20523;-74
2022/09/05 03:08:37;;;;;;;7.00;6.30;;;;;;;;;;5055629;28;20544;-73
2022/09/05 03:11:19;;;;;;;6.93;6.33;;;;;;;;;;5053754;28;20454;-74
2022/09/05 03:13:58;;;;;;;6.40;5.90;;;;;;;;;;5053340;28;20452;-74
2022/09/05 03:16:51;;;;;;;8.20;6.20;;;;;;;;;;5052999;28;20556;-73
2022/09/05 03:19:45;;;;;;;7.10;6.50;;;;;;;;;;5053557;28;20522;-74
2022/09/05 03:22:31;;;;;;;6.80;6.20;;;;;;;;;;5053130;28;20840;-74
2022/09/05 03:25:13;;;;;;;7.47;6.77;;;;;;;;;;5053047;28;20442;-73
2022/09/05 03:28:02;;;;;;;6.77;6.27;;;;;;;;;;5053672;28;20499;-74
2022/09/05 03:30:39;;;;;;;7.43;6.77;;;;;;;;;;5053299;28;20439;-73
2022/09/05 03:33:30;;;;;;;7.30;6.60;;;;;;;;;;5053758;28;20430;-74
2022/09/05 03:36:22;;;;;;;7.93;7.23;;;;;;;;;;4997077;28;20959;-74
2022/09/05 03:39:09;;;;;;;10.27;6.90;;;;;;;;;;5053195;28;20447;-74
2022/09/05 03:41:44;;;;;;;7.03;6.43;;;;;;;;;;5052759;28;20555;-72
2022/09/05 03:44:26;;;;;;;7.27;6.57;;;;;;;;;;5052914;28;20424;-74
2022/09/05 03:47:11;;;;;;;7.40;6.70;;;;;;;;;;5050834;28;20832;-73
2022/09/05 03:50:01;;;;;;;7.93;7.23;;;;;;;;;;5043245;28;20879;-74
2022/09/05 03:52:49;;;;;;;7.37;6.63;;;;;;;;;;5052771;28;20501;-74
2022/09/05 03:55:40;;;;;;;8.63;7.13;;;;;;;;;;5052609;28;20453;-73
2022/09/05 03:58:19;;;;;;;8.10;7.40;;;;;;;;;;5063138;28;20524;-73
2022/09/05 04:00:48;;;;;;;7.87;7.17;;;;;;;;;;5076617;28;20466;-73
2022/09/05 04:03:20;;;;;;;7.67;7.00;;;;;;;;;;5076377;28;20472;-74
2022/09/05 04:05:49;;;;;;;9.40;8.60;;;;;;;;;;5076505;28;20430;-74
2022/09/05 04:08:21;;;;;;;8.40;7.70;;;;;;;;;;5076292;28;20534;-73
2022/09/05 04:10:53;;;;;;;9.23;8.47;;;;;;;;;;5076383;28;20539;-74
2022/09/05 04:13:24;;;;;;;10.00;9.00;;;;;;;;;;5076055;28;20512;-73
2022/09/05 04:16:02;;;;;;;9.90;9.07;;;;;;;;;;5075634;28;21198;-74
2022/09/05 04:18:34;;;;;;;9.50;8.50;;;;;;;;;;5075949;28;20895;-73
2022/09/05 04:21:05;;;;;;;10.20;9.20;;;;;;;;;;5076535;28;20883;-74
2022/09/05 04:23:42;;;;;;;9.33;8.43;;;;;;;;;;5075843;28;20436;-73
2022/09/05 04:26:16;;;;;;;9.77;8.87;;;;;;;;;;5076013;28;20440;-73
2022/09/05 04:28:52;;;;;;;9.40;8.50;;;;;;;;;;5076250;28;20447;-74
2022/09/05 04:31:24;;;;;;;10.00;7.93;;;;;;;;;;5076183;28;20518;-74
2022/09/05 04:34:00;;;;;;;8.97;8.20;;;;;;;;;;5075925;28;20679;-74
2022/09/05 04:36:29;;;;;;;10.43;9.53;;;;;;;;;;5075853;28;20422;-74
2022/09/05 04:39:08;;;;;;;11.27;8.30;;;;;;;;;;5075813;28;20450;-74
2022/09/05 04:41:40;;;;;;;13.03;9.10;;;;;;;;;;5076492;28;20490;-74
2022/09/05 04:44:09;;;;;;;10.47;9.07;;;;;;;;;;5075842;28;20436;-70
2022/09/05 04:46:39;;;;;;;8.83;8.03;;;;;;;;;;5075555;28;20448;-73
2022/09/05 04:49:08;;;;;;;9.40;8.50;;;;;;;;;;5075930;28;20471;-74
2022/09/05 04:51:50;;;;;;;9.63;8.73;;;;;;;;;;5075799;28;20443;-73
2022/09/05 04:54:29;;;;;;;9.30;8.40;;;;;;;;;;5073662;28;20450;-72
2022/09/05 04:56:59;;;;;;;14.20;8.87;;;;;;;;;;5075027;28;20438;-74
2022/09/05 04:59:31;;;;;;;9.57;8.63;;;;;;;;;;5076047;28;20508;-73
2022/09/05 05:02:00;;;;;;;11.93;9.03;;;;;;;;;;5075453;28;20497;-73
2022/09/05 05:04:27;;;;;;;8.87;8.00;;;;;;;;;;5075503;28;20449;-73
2022/09/05 05:06:58;;;;;;;12.00;9.00;;;;;;;;;;5075264;28;20447;-73
2022/09/05 05:09:28;;;;;;;8.93;8.03;;;;;;;;;;5075448;28;20510;-73
2022/09/05 05:11:58;;;;;;;11.60;8.73;;;;;;;;;;5075258;28;20551;-73
2022/09/05 05:14:29;;;;;;;10.00;9.00;;;;;;;;;;5074659;28;20440;-72
2022/09/05 05:17:00;;;;;;;9.20;8.30;;;;;;;;;;5075050;28;21064;-73
2022/09/05 05:19:30;;;;;;;9.90;9.00;;;;;;;;;;5076092;28;20436;-73
2022/09/05 05:21:58;;;;;;;12.33;8.90;;;;;;;;;;5074912;28;20563;-73
2022/09/05 05:24:28;;;;;;;10.33;8.97;;;;;;;;;;5075323;28;20455;-73
2022/09/05 05:27:01;;;;;;;13.63;8.90;;;;;;;;;;5075279;28;20474;-77
2022/09/05 05:29:35;;;;;;;8.80;7.97;;;;;;;;;;5075429;28;20507;-74
2022/09/05 05:32:03;;;;;;;10.87;9.97;;;;;;;;;;5074776;28;20444;-72
2022/09/05 05:34:33;;;;;;;10.80;9.77;;;;;;;;;;5074724;28;20480;-73
2022/09/05 05:37:02;;;;;;;10.30;8.90;;;;;;;;;;5074988;28;20455;-73
2022/09/05 05:39:30;;;;;;;12.40;10.03;;;;;;;;;;5075010;28;20446;-73
2022/09/05 05:42:01;;;;;;;10.70;8.70;;;;;;;;;;5075007;28;20468;-73
2022/09/05 05:44:30;;;;;;;10.80;9.50;;;;;;;;;;5074582;28;20434;-73
2022/09/05 05:46:59;;;;;;;9.37;8.57;;;;;;;;;;5074997;28;20522;-74
2022/09/05 05:49:40;;;;;;;9.40;8.60;;;;;;;;;;5074819;28;20447;-74
2022/09/05 05:52:24;;;;;;;10.40;9.07;;;;;;;;;;5074998;28;20439;-74
2022/09/05 05:54:54;;;;;;;9.50;8.70;;;;;;;;;;5074351;28;20427;-74
2022/09/05 05:57:29;;;;;;;10.03;9.20;;;;;;;;;;5074677;28;20429;-73
2022/09/05 06:00:07;;;;;;;9.90;9.10;;;;;;;;;;5074593;28;20486;-74
2022/09/05 06:03:00;;;;;;;12.80;9.77;;;;;;;;;;5074500;28;20549;-73
2022/09/05 06:05:36;;;;;;;21.60;19.17;;;;;;;;;;5074987;28;20430;-74
2022/09/05 06:08:09;;;;;;;16.37;14.33;;;;;;;;;;5075099;28;20455;-74
2022/09/05 06:10:49;;;;;;;10.50;9.13;;;;;;;;;;5074114;28;20437;-75
2022/09/05 06:13:35;;;;;;;12.00;10.07;;;;;;;;;;5074629;28;20422;-75
2022/09/05 06:16:17;;;;;;;10.30;9.40;;;;;;;;;;5074195;28;20468;-75
2022/09/05 06:19:06;;;;;;;10.53;9.23;;;;;;;;;;5073891;28;20424;-74
2022/09/05 06:21:51;;;;;;;12.40;9.73;;;;;;;;;;5074042;28;20466;-74
2022/09/05 06:24:32;;;;;;;9.20;8.30;;;;;;;;;;5074339;28;20498;-75
2022/09/05 06:27:14;;;;;;;12.70;9.83;;;;;;;;;;5073852;28;20437;-75
2022/09/05 06:29:49;;;;;;;12.37;11.17;;;;;;;;;;5074067;28;20789;-74
2022/09/05 06:32:24;;;;;;;11.07;9.83;;;;;;;;;;5074083;28;20529;-75
2022/09/05 06:35:03;;;;;;;10.47;8.57;;;;;;;;;;5074054;28;20432;-74
2022/09/05 06:37:37;;;;;;;9.90;9.10;;;;;;;;;;5074524;28;20430;-74
2022/09/05 06:40:09;;;;;;;12.90;8.87;;;;;;;;;;5073773;28;20584;-74
2022/09/05 06:42:44;;;;;;;10.13;9.00;;;;;;;;;;5074170;28;20465;-74
2022/09/05 06:45:20;;;;;;;9.93;8.90;;;;;;;;;;5073665;28;20937;-73
2022/09/05 06:47:48;;;;;;;10.23;9.33;;;;;;;;;;5074123;28;20461;-75
2022/09/05 06:50:18;;;;;;;10.60;9.60;;;;;;;;;;5073512;28;20497;-74
2022/09/05 06:53:00;;;;;;;15.30;11.87;;;;;;;;;;5073783;28;20425;-73
2022/09/05 06:55:42;;;;;;;10.47;9.37;;;;;;;;;;5073434;28;20473;-74
2022/09/05 06:58:24;;;;;;;10.10;8.97;;;;;;;;;;5073844;28;20784;-73
2022/09/05 07:00:54;;;;;;;15.13;9.77;;;;;;;;;;5071899;28;20451;-73
2022/09/05 07:03:39;;;;;;;15.43;10.83;;;;;;;;;;5073284;28;20961;-74
2022/09/05 07:06:09;;;;;;;9.67;8.87;;;;;;;;;;5073736;28;20422;-74
2022/09/05 07:08:46;;;;;;;10.00;8.93;;;;;;;;;;5073466;28;20533;-73
2022/09/05 07:11:17;;;;;;;10.57;9.67;;;;;;;;;;5073613;28;20526;-75
2022/09/05 07:13:50;;;;;;;9.73;8.07;;;;;;;;;;5073184;28;20508;-74
2022/09/05 07:16:20;;;;;;;9.30;8.40;;;;;;;;;;5073869;28;20870;-74
2022/09/05 07:18:53;;;;;;;9.90;8.87;;;;;;;;;;5073399;28;20482;-73
2022/09/05 07:21:23;;;;;;;8.93;8.23;;;;;;;;;;5074229;28;20549;-76
2022/09/05 07:23:54;;;;;;;10.40;8.30;;;;;;;;;;5073125;28;20437;-74
2022/09/05 07:26:23;;;;;;;9.90;9.00;;;;;;;;;;5073157;28;20426;-74
2022/09/05 07:28:53;;;;;;;10.93;7.90;;;;;;;;;;5073332;28;20477;-74
2022/09/05 07:31:25;;;;;;;10.37;7.00;;;;;;;;;;5073633;28;20529;-74
2022/09/05 07:34:06;;;;;;;10.87;7.03;;;;;;;;;;5077194;28;20428;-74
2022/09/05 07:36:39;;;;;;;14.17;8.47;;;;;;;;;;5077524;28;20518;-74
2022/09/05 07:39:08;;;;;;;10.97;8.90;;;;;;;;;;5077746;28;20515;-74
2022/09/05 07:41:38;;;;;;;11.47;9.03;;;;;;;;;;5077218;28;20824;-74
2022/09/05 07:44:06;;;;;;;10.23;6.13;;;;;;;;;;5076862;28;20447;-74
2022/09/05 07:46:37;;;;;;;7.30;6.60;;;;;;;;;;5077458;28;20455;-74
2022/09/05 07:49:05;;;;;;;11.87;5.90;;;;;;;;;;5077250;28;20447;-74
2022/09/05 07:51:34;;;;;;;6.73;6.03;;;;;;;;;;5077087;28;20447;-74
2022/09/05 07:54:03;;;;;;;10.03;6.33;;;;;;;;;;5077011;28;20526;-74
2022/09/05 07:56:41;;;;;;;9.60;6.20;;;;;;;;;;5077331;28;20472;-75
2022/09/05 07:59:10;;;;;;;8.00;6.30;;;;;;;;;;5076941;28;20428;-74
2022/09/05 08:01:41;;;;;;;9.13;6.83;;;;;;;;;;5076510;28;20563;-76
2022/09/05 08:04:09;;;;;;;7.00;6.30;;;;;;;;;;5077184;28;20507;-74
2022/09/05 08:06:36;;;;;;;12.70;6.50;;;;;;;;;;5076435;28;20486;-75
2022/09/05 08:09:05;;;;;;;7.17;5.97;;;;;;;;;;5076668;28;20944;-73
2022/09/05 08:11:35;;;;;;;11.70;5.63;;;;;;;;;;5076586;28;20937;-75
2022/09/05 08:14:05;;;;;;;6.70;6.10;;;;;;;;;;5076563;28;20470;-76
2022/09/05 08:16:33;;;;;;;6.53;5.90;;;;;;;;;;5076708;28;20922;-76
2022/09/05 08:19:11;;;;;;;6.47;5.90;;;;;;;;;;5076547;28;20452;-75
2022/09/05 08:21:41;;;;;;;5.37;4.97;;;;;;;;;;5075571;28;20566;-75
2022/09/05 08:24:11;;;;;;;5.43;4.93;;;;;;;;;;5076612;28;20523;-75
2022/09/05 08:26:41;;;;;;;13.27;5.70;;;;;;;;;;5075861;28;20431;-75
2022/09/05 08:29:10;;;;;;;6.53;5.77;;;;;;;;;;5076343;28;20436;-75
2022/09/05 08:31:40;;;;;;;7.07;5.63;;;;;;;;;;5076229;28;20947;-75
2022/09/05 08:34:10;;;;;;;6.63;5.40;;;;;;;;;;5075979;28;20902;-76
2022/09/05 08:36:40;;;;;;;5.47;4.97;;;;;;;;;;5076197;28;20464;-75
2022/09/05 08:39:09;;;;;;;9.57;4.57;;;;;;;;;;5076124;28;20444;-75
2022/09/05 08:41:42;;;;;;;5.30;4.87;;;;;;;;;;5075868;28;20472;-74
2022/09/05 08:44:14;;;;;;;6.60;4.93;;;;;;;;;;5075652;28;20515;-75
2022/09/05 08:46:45;;;;;;;10.40;5.50;;;;;;;;;;5076120;28;20449;-75
2022/09/05 08:49:36;;;;;;;11.33;6.00;;;;;;;;;;5076103;28;20504;-75
2022/09/05 08:52:07;;;;;;;6.00;4.10;;;;;;;;;;5075736;28;20468;-76
2022/09/05 08:54:38;;;;;;;6.70;4.93;;;;;;;;;;5075911;28;20438;-75
2022/09/05 08:57:12;;;;;;;6.43;4.43;;;;;;;;;;5075885;28;20434;-75
2022/09/05 08:59:44;;;;;;;12.37;3.93;;;;;;;;;;5076661;28;20509;-75
2022/09/05 09:02:26;;;;;;;5.67;4.30;;;;;;;;;;5075760;28;20465;-75
2022/09/05 09:05:06;;;;;;;10.53;4.90;;;;;;;;;;5075419;28;20461;-74
2022/09/05 09:07:35;;;;;;;4.93;3.90;;;;;;;;;;5075348;28;20460;-75
2022/09/05 09:10:04;;;;;;;4.70;4.30;;;;;;;;;;5075509;28;20449;-75
2022/09/05 09:12:46;;;;;;;11.90;5.20;;;;;;;;;;5075225;28;20450;-75
2022/09/05 09:15:18;;;;;;;14.53;6.00;;;;;;;;;;5073730;28;20486;-75
2022/09/05 09:17:46;;;;;;;8.00;4.20;;;;;;;;;;5075422;28;20529;-75
2022/09/05 09:20:16;;;;;;;9.17;4.30;;;;;;;;;;5076073;28;20548;-75
2022/09/05 09:22:50;;;;;;;5.97;4.13;;;;;;;;;;5075060;28;20477;-75
2022/09/05 09:25:22;;;;;;;9.13;4.67;;;;;;;;;;5074969;28;20523;-75
2022/09/05 09:27:59;;;;;;;4.77;4.27;;;;;;;;;;5075328;28;20522;-75
2022/09/05 09:30:27;;;;;;;7.63;4.53;;;;;;;;;;5074811;28;20485;-75
2022/09/05 09:32:58;;;;;;;4.17;3.63;;;;;;;;;;5074766;28;20538;-75
2022/09/05 09:35:31;;;;;;;5.50;4.40;;;;;;;;;;5075171;28;20426;-75
2022/09/05 09:38:06;;;;;;;6.03;4.43;;;;;;;;;;5074789;28;20476;-75
2022/09/05 09:40:48;;;;;;;5.27;3.27;;;;;;;;;;5074654;28;20434;-75
2022/09/05 09:43:20;;;;;;;7.30;3.80;;;;;;;;;;5074956;28;20466;-76
2022/09/05 09:46:02;;;;;;;3.73;3.37;;;;;;;;;;5075204;28;20448;-75
2022/09/05 09:48:40;;;;;;;3.00;2.90;;;;;;;;;;5074719;28;20504;-75
2022/09/05 09:51:16;;;;;;;3.83;3.53;;;;;;;;;;5074588;28;20434;-75
2022/09/05 09:53:50;;;;;;;5.20;3.50;;;;;;;;;;5075191;28;20467;-75
2022/09/05 09:56:28;;;;;;;4.83;3.53;;;;;;;;;;5073512;28;20510;-75
2022/09/05 09:59:04;;;;;;;8.00;3.73;;;;;;;;;;5074375;28;20463;-75
2022/09/05 10:01:38;;;;;;;4.67;3.40;;;;;;;;;;5074690;28;20474;-75
2022/09/05 10:04:13;;;;;;;5.33;3.60;;;;;;;;;;5074609;28;20514;-75
2022/09/05 10:07:01;;;;;;;6.43;3.70;;;;;;;;;;5074074;28;20431;-75
2022/09/05 10:09:37;;;;;;;3.27;3.07;;;;;;;;;;5074455;28;20460;-75
2022/09/05 10:12:37;;;;;;;5.20;3.40;;;;;;;;;;5074474;28;20570;-75
2022/09/05 10:15:14;;;;;;;3.93;2.90;;;;;;;;;;5031686;28;20561;-75
2022/09/05 10:17:56;;;;;;;3.00;2.70;;;;;;;;;;5031886;28;20445;-75
2022/09/05 10:20:38;;;;;;;3.73;3.30;;;;;;;;;;5057984;28;20481;-75
2022/09/05 10:23:29;;;;;;;3.30;3.10;;;;;;;;;;5073947;28;20906;-75
2022/09/05 10:26:16;;;;;;;3.53;2.90;;;;;;;;;;5074172;28;20511;-75
2022/09/05 10:28:50;;;;;;;6.20;4.73;;;;;;;;;;5074204;28;20501;-75
2022/09/05 10:31:18;;;;;;;5.70;2.80;;;;;;;;;;5073991;28;20859;-75
2022/09/05 10:33:50;;;;;;;3.40;2.93;;;;;;;;;;5074548;28;20939;-75
2022/09/05 10:36:24;;;;;;;3.20;2.93;;;;;;;;;;5074194;28;20438;-76
2022/09/05 10:39:08;;;;;;;4.30;3.70;;;;;;;;;;5073721;28;20809;-73
2022/09/05 10:41:48;;;;;;;3.17;2.60;;;;;;;;;;5073870;28;20467;-75
2022/09/05 10:44:17;;;;;;;5.33;3.10;;;;;;;;;;5073968;28;20421;-75
2022/09/05 10:46:52;;;;;;;6.73;2.83;;;;;;;;;;5073968;28;20850;-75
2022/09/05 10:49:22;;;;;;;2.77;2.57;;;;;;;;;;5073920;28;20429;-75
2022/09/05 10:51:53;;;;;;;3.37;2.97;;;;;;;;;;5073256;28;20450;-73
2022/09/05 10:54:36;;;;;;;5.23;2.67;;;;;;;;;;5073547;28;20532;-74
2022/09/05 10:57:07;;;;;;;2.77;2.57;;;;;;;;;;5073881;28;20406;-73
2022/09/05 10:59:46;;;;;;;5.73;2.80;;;;;;;;;;5073584;28;20430;-73
2022/09/05 11:02:16;;;;;;;4.50;2.23;;;;;;;;;;5073407;28;20517;-73
2022/09/05 11:04:47;;;;;;;2.77;2.57;;;;;;;;;;5073434;28;20533;-74
2022/09/05 11:07:15;;;;;;;3.63;2.10;;;;;;;;;;5072756;28;20912;-74
2022/09/05 11:09:58;;;;;;;2.57;2.37;;;;;;;;;;5073438;28;20421;-74
2022/09/05 11:12:31;;;;;;;5.77;2.23;;;;;;;;;;5071876;28;20483;-76
2022/09/05 11:15:01;;;;;;;6.57;3.13;;;;;;;;;;5073395;28;20559;-74
2022/09/05 11:17:31;;;;;;;3.30;3.00;;;;;;;;;;5073349;28;20484;-74
2022/09/05 11:20:05;;;;;;;6.60;5.47;;;;;;;;;;5073300;28;20862;-74
2022/09/05 11:22:37;;;;;;;4.50;3.27;;;;;;;;;;5073582;28;20558;-74
2022/09/05 11:25:08;;;;;;;2.70;2.50;;;;;;;;;;5073478;28;20407;-74
2022/09/05 11:27:38;;;;;;;3.20;2.70;;;;;;;;;;5073457;28;20430;-74
2022/09/05 11:30:07;;;;;;;3.30;2.00;;;;;;;;;;5072915;28;20451;-74
2022/09/05 11:32:46;;;;;;;3.20;2.47;;;;;;;;;;5073474;28;20533;-74
2022/09/05 11:35:18;;;;;;;4.23;2.20;;;;;;;;;;5072953;28;20518;-74
2022/09/05 11:38:03;;;;;;;4.37;1.90;;;;;;;;;;5072997;28;20432;-74
2022/09/05 11:40:35;;;;;;;2.23;2.03;;;;;;;;;;5072775;28;20849;-74
2022/09/05 11:43:22;;;;;;;2.30;2.10;;;;;;;;;;5073100;28;20947;-75
2022/09/05 11:46:08;;;;;;;2.67;2.13;;;;;;;;;;5073225;28;20810;-75
2022/09/05 11:48:42;;;;;;;2.13;2.03;;;;;;;;;;5073214;28;20467;-74
2022/09/05 11:51:25;;;;;;;3.43;1.90;;;;;;;;;;5073296;28;20434;-74
2022/09/05 11:54:01;;;;;;;3.70;1.90;;;;;;;;;;5071754;28;20431;-74
2022/09/05 11:56:40;;;;;;;2.10;2.00;;;;;;;;;;5072677;28;20480;-75
2022/09/05 11:59:15;;;;;;;1.60;1.50;;;;;;;;;;5073045;28;20530;-75
2022/09/05 12:01:50;;;;;;;4.40;2.37;;;;;;;;;;5072863;28;20504;-74
2022/09/05 12:04:33;;;;;;;2.87;2.20;;;;;;;;;;5072503;28;20553;-75
2022/09/05 12:07:07;;;;;;;2.43;2.23;;;;;;;;;;5073053;28;20478;-74
2022/09/05 12:09:41;;;;;;;3.33;1.90;;;;;;;;;;5072783;28;20581;-75
2022/09/05 12:12:15;;;;;;;3.20;2.20;;;;;;;;;;5073277;28;20441;-74
2022/09/05 12:14:47;;;;;;;3.20;2.10;;;;;;;;;;5072171;28;20922;-74
2022/09/05 12:17:23;;;;;;;4.73;2.10;;;;;;;;;;5072830;28;20486;-74
2022/09/05 12:19:54;;;;;;;2.70;2.03;;;;;;;;;;5075087;28;20430;-74
2022/09/05 12:22:27;;;;;;;2.40;2.27;;;;;;;;;;5076080;28;20904;-75
2022/09/05 12:25:12;;;;;;;3.50;2.70;;;;;;;;;;5076970;28;20424;-74
2022/09/05 12:27:42;;;;;;;2.73;2.53;;;;;;;;;;5069782;28;20806;-74
2022/09/05 12:30:12;;;;;;;2.60;2.40;;;;;;;;;;5076029;28;20798;-74
2022/09/05 12:32:49;;;;;;;3.73;2.30;;;;;;;;;;5075909;28;20447;-74
2022/09/05 12:35:21;;;;;;;5.90;2.40;;;;;;;;;;5076306;28;20454;-74
2022/09/05 12:37:52;;;;;;;13.30;2.53;;;;;;;;;;5075812;28;20522;-74
2022/09/05 12:40:25;;;;;;;3.90;2.13;;;;;;;;;;5076176;28;20468;-75
2022/09/05 12:42:54;;;;;;;2.40;2.20;;;;;;;;;;5075710;28;20540;-74
2022/09/05 12:45:25;;;;;;;2.60;2.40;;;;;;;;;;5075880;28;20430;-75
2022/09/05 12:47:55;;;;;;;2.70;2.50;;;;;;;;;;5075632;28;20420;-74
2022/09/05 12:50:25;;;;;;;3.30;2.43;;;;;;;;;;5076305;28;20796;-74
2022/09/05 12:52:58;;;;;;;2.13;1.93;;;;;;;;;;5076104;28;20458;-74
2022/09/05 12:55:27;;;;;;;4.70;3.17;;;;;;;;;;5075528;28;20435;-71
2022/09/05 12:58:00;;;;;;;3.50;2.93;;;;;;;;;;5075732;28;20829;-73
2022/09/05 13:00:28;;;;;;;2.53;2.33;;;;;;;;;;5075546;28;20383;-73
2022/09/05 13:02:59;;;;;;;3.67;2.10;;;;;;;;;;5075098;28;20488;-72
2022/09/05 13:05:37;;;;;;;2.70;2.50;;;;;;;;;;5075660;28;20436;-74
2022/09/05 13:08:05;;;;;;;2.30;2.10;;;;;;;;;;5075249;28;20490;-72
2022/09/05 13:10:33;;;;;;;2.70;2.50;;;;;;;;;;5075185;28;20478;-73
2022/09/05 13:13:05;;;;;;;4.77;2.33;;;;;;;;;;5075522;28;20451;-76
2022/09/05 13:15:35;;;;;;;2.63;2.43;;;;;;;;;;5075498;28;20467;-75
2022/09/05 13:18:09;;;;;;;2.60;2.40;;;;;;;;;;5075912;28;20489;-74
2022/09/05 13:20:38;;;;;;;2.40;2.30;;;;;;;;;;5075524;28;20432;-74
2022/09/05 13:23:16;;;;;;;2.20;2.00;;;;;;;;;;5074826;28;20559;-75
2022/09/05 13:25:49;;;;;;;2.40;2.20;;;;;;;;;;5075060;28;20967;-74
2022/09/05 13:28:18;;;;;;;3.37;2.20;;;;;;;;;;5075548;28;20483;-73
2022/09/05 13:30:53;;;;;;;2.90;2.13;;;;;;;;;;5075026;28;20417;-74
2022/09/05 13:33:22;;;;;;;3.23;2.37;;;;;;;;;;5071777;28;20432;-75
2022/09/05 13:36:02;;;;;;;3.03;2.57;;;;;;;;;;5054216;28;21000;-74
2022/09/05 13:38:37;;;;;;;2.43;2.23;;;;;;;;;;5057358;28;20443;-74
2022/09/05 13:41:06;;;;;;;2.40;2.20;;;;;;;;;;5074256;28;20869;-74
2022/09/05 13:43:37;;;;;;;2.53;2.33;;;;;;;;;;5074192;28;20454;-74
2022/09/05 13:46:10;;;;;;;2.60;2.10;;;;;;;;;;5074450;28;20421;-74
2022/09/05 13:48:41;;;;;;;2.83;2.17;;;;;;;;;;5074180;28;20435;-74
2022/09/05 13:51:16;;;;;;;4.07;2.30;;;;;;;;;;5074124;28;20428;-73
2022/09/05 13:53:50;;;;;;;2.30;2.20;;;;;;;;;;5074053;28;20488;-75
2022/09/05 13:56:22;;;;;;;3.10;2.40;;;;;;;;;;5074292;28;20774;-74
2022/09/05 13:58:54;;;;;;;6.37;3.90;;;;;;;;;;5074311;28;20477;-73
2022/09/05 14:01:33;;;;;;;4.57;4.17;;;;;;;;;;5074115;28;20435;-73
2022/09/05 14:04:28;;;;;;;4.23;2.67;;;;;;;;;;5074008;28;20561;-73
2022/09/05 14:07:17;;;;;;;7.03;2.40;;;;;;;;;;5074087;28;20503;-73
2022/09/05 14:10:01;;;;;;;2.37;2.27;;;;;;;;;;5073699;28;20487;-73
2022/09/05 14:12:33;;;;;;;5.60;2.20;;;;;;;;;;5074278;28;20431;-74
2022/09/05 14:15:02;;;;;;;4.33;1.97;;;;;;;;;;5073477;28;20489;-75
2022/09/05 14:17:34;;;;;;;2.67;2.50;;;;;;;;;;5074325;28;20440;-74
2022/09/05 14:22:53;;;;;;;2.70;1.83;;;;;;;;;;5017080;28;20428;-73
2022/09/05 14:25:23;;;;;;;2.07;1.90;;;;;;;;;;5074280;28;20494;-73
2022/09/05 14:27:50;;;;;;;2.30;2.10;;;;;;;;;;5073923;28;20435;-73
2022/09/05 14:30:38;;;;;;;3.40;2.20;;;;;;;;;;5073801;28;20524;-74
2022/09/05 14:33:19;;;;;;;4.10;2.53;;;;;;;;;;5070121;28;20554;-73
2022/09/05 14:35:50;;;;;;;4.23;2.30;;;;;;;;;;5073587;28;20403;-73
2022/09/05 14:38:24;;;;;;;4.90;2.00;;;;;;;;;;5074192;28;20426;-75
2022/09/05 14:41:09;;;;;;;3.87;1.80;;;;;;;;;;5073680;28;20499;-74
2022/09/05 14:43:55;;;;;;;4.03;2.70;;;;;;;;;;5062153;28;20474;-74
2022/09/05 14:46:30;;;;;;;3.10;2.57;;;;;;;;;;5073684;28;20513;-74
2022/09/05 14:49:09;;;;;;;2.40;2.00;;;;;;;;;;5073349;28;20493;-74
2022/09/05 14:51:45;;;;;;;2.37;2.17;;;;;;;;;;5073265;28;20445;-74
2022/09/05 14:54:14;;;;;;;3.93;2.47;;;;;;;;;;5073538;28;20890;-74
2022/09/05 14:56:44;;;;;;;2.23;2.00;;;;;;;;;;5073321;28;20443;-74
2022/09/05 14:59:22;;;;;;;2.40;2.20;;;;;;;;;;5073602;28;20878;-74
2022/09/05 15:01:50;;;;;;;2.33;2.13;;;;;;;;;;5073147;28;20512;-74
2022/09/05 15:04:21;;;;;;;2.73;1.93;;;;;;;;;;5073316;28;20475;-74
2022/09/05 15:07:00;;;;;;;8.00;2.53;;;;;;;;;;5073163;28;20804;-74
2022/09/05 15:09:27;;;;;;;2.20;2.10;;;;;;;;;;5073376;28;20926;-74
2022/09/05 15:11:54;;;;;;;5.10;3.00;;;;;;;;;;5072951;28;20475;-74
2022/09/05 15:14:23;;;;;;;3.50;2.17;;;;;;;;;;5073176;28;20864;-74
2022/09/05 15:16:58;;;;;;;5.37;2.30;;;;;;;;;;5072658;28;21012;-75
2022/09/05 15:19:40;;;;;;;1.97;1.77;;;;;;;;;;5073173;28;20464;-74
2022/09/05 15:22:23;;;;;;;4.13;2.30;;;;;;;;;;5073632;28;20580;-74
2022/09/05 15:25:00;;;;;;;4.10;2.57;;;;;;;;;;5072944;28;20464;-75
2022/09/05 15:27:28;;;;;;;3.43;2.20;;;;;;;;;;5073325;28;20530;-74